sensor_id;sensor_type;location;lat;lon;timestamp;P1;durP1;ratioP1;P2;durP2;ratioP2
57889;SDS011;43707;50.184;18.966;2023-07-13T00:02:21;0.80;;;0.60;;
57889;SDS011;43707;50.184;18.966;2023-07-13T00:04:46;1.50;;;0.70;;
57889;SDS011;43707;50.184;18.966;2023-07-13T00:07:12;0.60;;;0.40;;
57889;SDS011;43707;50.184;18.966;2023-07-13T00:09:39;0.70;;;0.50;;
57889;SDS011;43707;50.184;18.966;2023-07-13T00:12:05;0.40;;;0.30;;
57889;SDS011;43707;50.184;18.966;2023-07-13T00:14:30;0.40;;;0.40;;
57889;SDS011;43707;50.184;18.966;2023-07-13T00:16:56;0.80;;;0.40;;
57889;SDS011;43707;50.184;18.966;2023-07-13T00:19:22;1.40;;;0.40;;
57889;SDS011;43707;50.184;18.966;2023-07-13T00:21:47;0.60;;;0.40;;
57889;SDS011;43707;50.184;18.966;2023-07-13T00:24:14;1.30;;;0.50;;
57889;SDS011;43707;50.184;18.966;2023-07-13T00:26:41;0.50;;;0.40;;
57889;SDS011;43707;50.184;18.966;2023-07-13T00:29:10;1.40;;;0.60;;
57889;SDS011;43707;50.184;18.966;2023-07-13T00:31:35;1.00;;;0.50;;
57889;SDS011;43707;50.184;18.966;2023-07-13T00:34:01;0.70;;;0.30;;
57889;SDS011;43707;50.184;18.966;2023-07-13T00:36:27;0.80;;;0.50;;
57889;SDS011;43707;50.184;18.966;2023-07-13T00:38:53;1.30;;;0.40;;
57889;SDS011;43707;50.184;18.966;2023-07-13T00:41:18;0.70;;;0.60;;
57889;SDS011;43707;50.184;18.966;2023-07-13T00:43:44;0.80;;;0.50;;
57889;SDS011;43707;50.184;18.966;2023-07-13T00:46:14;0.90;;;0.50;;
57889;SDS011;43707;50.184;18.966;2023-07-13T00:48:45;1.30;;;0.40;;
57889;SDS011;43707;50.184;18.966;2023-07-13T00:51:12;0.40;;;0.30;;
57889;SDS011;43707;50.184;18.966;2023-07-13T00:53:39;0.90;;;0.30;;
57889;SDS011;43707;50.184;18.966;2023-07-13T00:56:04;0.20;;;0.20;;
57889;SDS011;43707;50.184;18.966;2023-07-13T00:58:30;0.90;;;0.20;;
57889;SDS011;43707;50.184;18.966;2023-07-13T01:00:56;0.50;;;0.20;;
57889;SDS011;43707;50.184;18.966;2023-07-13T01:03:21;1.00;;;0.20;;
57889;SDS011;43707;50.184;18.966;2023-07-13T01:05:48;0.10;;;0.10;;
57889;SDS011;43707;50.184;18.966;2023-07-13T01:08:14;0.10;;;0.10;;
57889;SDS011;43707;50.184;18.966;2023-07-13T01:10:40;0.20;;;0.20;;
57889;SDS011;43707;50.184;18.966;2023-07-13T01:13:06;0.10;;;0.10;;
57889;SDS011;43707;50.184;18.966;2023-07-13T01:18:03;0.10;;;0.10;;
57889;SDS011;43707;50.184;18.966;2023-07-13T01:20:36;0.20;;;0.20;;
57889;SDS011;43707;50.184;18.966;2023-07-13T01:23:05;0.10;;;0.10;;
57889;SDS011;43707;50.184;18.966;2023-07-13T01:25:33;0.00;;;0.00;;
57889;SDS011;43707;50.184;18.966;2023-07-13T01:28:00;0.40;;;0.10;;
57889;SDS011;43707;50.184;18.966;2023-07-13T01:30:25;0.30;;;0.10;;
57889;SDS011;43707;50.184;18.966;2023-07-13T01:32:51;0.00;;;0.00;;
57889;SDS011;43707;50.184;18.966;2023-07-13T01:35:16;0.00;;;0.00;;
57889;SDS011;43707;50.184;18.966;2023-07-13T01:37:42;0.10;;;0.10;;
57889;SDS011;43707;50.184;18.966;2023-07-13T01:40:07;0.10;;;0.10;;
57889;SDS011;43707;50.184;18.966;2023-07-13T01:42:33;0.10;;;0.10;;
57889;SDS011;43707;50.184;18.966;2023-07-13T01:44:59;0.00;;;0.00;;
57889;SDS011;43707;50.184;18.966;2023-07-13T01:47:25;0.10;;;0.10;;
57889;SDS011;43707;50.184;18.966;2023-07-13T01:49:51;0.00;;;0.00;;
57889;SDS011;43707;50.184;18.966;2023-07-13T01:52:17;0.00;;;0.00;;
57889;SDS011;43707;50.184;18.966;2023-07-13T01:54:42;0.10;;;0.10;;
57889;SDS011;43707;50.184;18.966;2023-07-13T01:57:09;0.10;;;0.10;;
57889;SDS011;43707;50.184;18.966;2023-07-13T01:59:36;0.00;;;0.00;;
57889;SDS011;43707;50.184;18.966;2023-07-13T02:02:24;0.10;;;0.10;;
57889;SDS011;43707;50.184;18.966;2023-07-13T02:05:01;0.00;;;0.00;;
57889;SDS011;43707;50.184;18.966;2023-07-13T02:07:27;0.00;;;0.00;;
57889;SDS011;43707;50.184;18.966;2023-07-13T02:09:52;0.10;;;0.10;;
57889;SDS011;43707;50.184;18.966;2023-07-13T02:12:18;0.00;;;0.00;;
57889;SDS011;43707;50.184;18.966;2023-07-13T02:14:44;0.00;;;0.00;;
57889;SDS011;43707;50.184;18.966;2023-07-13T02:17:09;0.00;;;0.00;;
57889;SDS011;43707;50.184;18.966;2023-07-13T02:19:35;0.10;;;0.10;;
57889;SDS011;43707;50.184;18.966;2023-07-13T02:22:01;0.10;;;0.10;;
57889;SDS011;43707;50.184;18.966;2023-07-13T02:24:27;0.10;;;0.10;;
57889;SDS011;43707;50.184;18.966;2023-07-13T02:26:52;0.10;;;0.10;;
57889;SDS011;43707;50.184;18.966;2023-07-13T02:29:18;0.00;;;0.00;;
57889;SDS011;43707;50.184;18.966;2023-07-13T02:31:43;0.00;;;0.00;;
57889;SDS011;43707;50.184;18.966;2023-07-13T02:34:09;0.10;;;0.10;;
57889;SDS011;43707;50.184;18.966;2023-07-13T02:36:34;0.10;;;0.10;;
57889;SDS011;43707;50.184;18.966;2023-07-13T02:39:00;0.30;;;0.20;;
57889;SDS011;43707;50.184;18.966;2023-07-13T02:41:27;0.10;;;0.10;;
57889;SDS011;43707;50.184;18.966;2023-07-13T02:43:53;0.10;;;0.10;;
57889;SDS011;43707;50.184;18.966;2023-07-13T02:46:18;0.20;;;0.10;;
57889;SDS011;43707;50.184;18.966;2023-07-13T02:48:44;0.00;;;0.00;;
57889;SDS011;43707;50.184;18.966;2023-07-13T02:51:10;0.10;;;0.10;;
57889;SDS011;43707;50.184;18.966;2023-07-13T02:53:36;0.10;;;0.10;;
57889;SDS011;43707;50.184;18.966;2023-07-13T02:56:01;0.10;;;0.10;;
57889;SDS011;43707;50.184;18.966;2023-07-13T02:58:27;0.20;;;0.00;;
57889;SDS011;43707;50.184;18.966;2023-07-13T03:00:52;0.10;;;0.10;;
57889;SDS011;43707;50.184;18.966;2023-07-13T03:03:18;0.20;;;0.10;;
57889;SDS011;43707;50.184;18.966;2023-07-13T03:05:44;0.50;;;0.10;;
57889;SDS011;43707;50.184;18.966;2023-07-13T03:08:15;0.10;;;0.10;;
57889;SDS011;43707;50.184;18.966;2023-07-13T03:10:41;0.10;;;0.10;;
57889;SDS011;43707;50.184;18.966;2023-07-13T03:13:06;0.10;;;0.10;;
57889;SDS011;43707;50.184;18.966;2023-07-13T03:15:31;0.10;;;0.10;;
57889;SDS011;43707;50.184;18.966;2023-07-13T03:17:57;0.10;;;0.10;;
57889;SDS011;43707;50.184;18.966;2023-07-13T03:20:22;0.10;;;0.10;;
57889;SDS011;43707;50.184;18.966;2023-07-13T03:22:48;0.10;;;0.10;;
57889;SDS011;43707;50.184;18.966;2023-07-13T03:25:13;0.20;;;0.10;;
57889;SDS011;43707;50.184;18.966;2023-07-13T03:27:39;0.10;;;0.10;;
57889;SDS011;43707;50.184;18.966;2023-07-13T03:30:05;0.00;;;0.00;;
57889;SDS011;43707;50.184;18.966;2023-07-13T03:32:31;0.10;;;0.10;;
57889;SDS011;43707;50.184;18.966;2023-07-13T03:34:57;0.10;;;0.10;;
57889;SDS011;43707;50.184;18.966;2023-07-13T03:37:22;0.00;;;0.00;;
57889;SDS011;43707;50.184;18.966;2023-07-13T03:39:47;0.10;;;0.10;;
57889;SDS011;43707;50.184;18.966;2023-07-13T03:42:13;0.10;;;0.10;;
57889;SDS011;43707;50.184;18.966;2023-07-13T03:44:39;0.20;;;0.10;;
57889;SDS011;43707;50.184;18.966;2023-07-13T03:47:05;0.10;;;0.10;;
57889;SDS011;43707;50.184;18.966;2023-07-13T03:49:31;0.10;;;0.10;;
57889;SDS011;43707;50.184;18.966;2023-07-13T03:51:57;0.10;;;0.10;;
57889;SDS011;43707;50.184;18.966;2023-07-13T03:54:22;0.10;;;0.10;;
57889;SDS011;43707;50.184;18.966;2023-07-13T03:56:48;0.20;;;0.10;;
57889;SDS011;43707;50.184;18.966;2023-07-13T03:59:13;0.10;;;0.10;;
57889;SDS011;43707;50.184;18.966;2023-07-13T04:01:39;0.20;;;0.20;;
57889;SDS011;43707;50.184;18.966;2023-07-13T04:04:04;0.10;;;0.10;;
57889;SDS011;43707;50.184;18.966;2023-07-13T04:06:30;0.10;;;0.10;;
57889;SDS011;43707;50.184;18.966;2023-07-13T04:08:57;0.10;;;0.10;;
57889;SDS011;43707;50.184;18.966;2023-07-13T04:11:24;0.10;;;0.10;;
57889;SDS011;43707;50.184;18.966;2023-07-13T04:13:51;0.10;;;0.10;;
57889;SDS011;43707;50.184;18.966;2023-07-13T04:16:17;0.00;;;0.00;;
57889;SDS011;43707;50.184;18.966;2023-07-13T04:18:43;0.10;;;0.10;;
57889;SDS011;43707;50.184;18.966;2023-07-13T04:21:09;0.10;;;0.10;;
57889;SDS011;43707;50.184;18.966;2023-07-13T04:23:35;0.00;;;0.00;;
57889;SDS011;43707;50.184;18.966;2023-07-13T04:26:01;0.10;;;0.10;;
57889;SDS011;43707;50.184;18.966;2023-07-13T04:28:27;0.10;;;0.10;;
57889;SDS011;43707;50.184;18.966;2023-07-13T04:30:52;0.10;;;0.10;;
57889;SDS011;43707;50.184;18.966;2023-07-13T04:33:18;0.10;;;0.10;;
57889;SDS011;43707;50.184;18.966;2023-07-13T04:35:50;0.10;;;0.10;;
57889;SDS011;43707;50.184;18.966;2023-07-13T04:38:21;0.00;;;0.00;;
57889;SDS011;43707;50.184;18.966;2023-07-13T04:40:49;0.10;;;0.10;;
57889;SDS011;43707;50.184;18.966;2023-07-13T04:43:16;0.00;;;0.00;;
57889;SDS011;43707;50.184;18.966;2023-07-13T04:45:41;0.10;;;0.10;;
57889;SDS011;43707;50.184;18.966;2023-07-13T04:48:06;0.10;;;0.10;;
57889;SDS011;43707;50.184;18.966;2023-07-13T04:50:32;0.10;;;0.10;;
57889;SDS011;43707;50.184;18.966;2023-07-13T04:52:57;0.10;;;0.10;;
57889;SDS011;43707;50.184;18.966;2023-07-13T04:55:24;0.10;;;0.10;;
57889;SDS011;43707;50.184;18.966;2023-07-13T04:57:49;0.20;;;0.10;;
57889;SDS011;43707;50.184;18.966;2023-07-13T05:00:14;0.10;;;0.10;;
57889;SDS011;43707;50.184;18.966;2023-07-13T05:02:44;0.00;;;0.00;;
57889;SDS011;43707;50.184;18.966;2023-07-13T05:05:11;0.10;;;0.10;;
57889;SDS011;43707;50.184;18.966;2023-07-13T05:07:36;0.00;;;0.00;;
57889;SDS011;43707;50.184;18.966;2023-07-13T05:10:02;0.10;;;0.10;;
57889;SDS011;43707;50.184;18.966;2023-07-13T05:12:29;0.20;;;0.10;;
57889;SDS011;43707;50.184;18.966;2023-07-13T05:14:55;0.10;;;0.10;;
57889;SDS011;43707;50.184;18.966;2023-07-13T05:17:20;0.10;;;0.10;;
57889;SDS011;43707;50.184;18.966;2023-07-13T05:19:46;0.10;;;0.10;;
57889;SDS011;43707;50.184;18.966;2023-07-13T05:22:12;0.10;;;0.10;;
57889;SDS011;43707;50.184;18.966;2023-07-13T05:24:37;0.20;;;0.20;;
57889;SDS011;43707;50.184;18.966;2023-07-13T05:27:03;0.10;;;0.10;;
57889;SDS011;43707;50.184;18.966;2023-07-13T05:29:29;0.10;;;0.10;;
57889;SDS011;43707;50.184;18.966;2023-07-13T05:31:54;0.40;;;0.10;;
57889;SDS011;43707;50.184;18.966;2023-07-13T05:34:19;0.10;;;0.10;;
57889;SDS011;43707;50.184;18.966;2023-07-13T05:36:45;0.20;;;0.20;;
57889;SDS011;43707;50.184;18.966;2023-07-13T05:39:11;0.10;;;0.10;;
57889;SDS011;43707;50.184;18.966;2023-07-13T05:41:36;0.10;;;0.10;;
57889;SDS011;43707;50.184;18.966;2023-07-13T05:44:02;0.20;;;0.10;;
57889;SDS011;43707;50.184;18.966;2023-07-13T05:46:28;0.00;;;0.00;;
57889;SDS011;43707;50.184;18.966;2023-07-13T05:48:53;0.10;;;0.10;;
57889;SDS011;43707;50.184;18.966;2023-07-13T05:51:19;0.00;;;0.00;;
57889;SDS011;43707;50.184;18.966;2023-07-13T05:53:44;0.10;;;0.10;;
57889;SDS011;43707;50.184;18.966;2023-07-13T05:56:09;0.10;;;0.10;;
57889;SDS011;43707;50.184;18.966;2023-07-13T05:58:35;0.10;;;0.10;;
57889;SDS011;43707;50.184;18.966;2023-07-13T06:01:01;0.10;;;0.10;;
57889;SDS011;43707;50.184;18.966;2023-07-13T06:03:29;0.80;;;0.10;;
57889;SDS011;43707;50.184;18.966;2023-07-13T06:05:54;0.10;;;0.10;;
57889;SDS011;43707;50.184;18.966;2023-07-13T06:08:19;0.10;;;0.10;;
57889;SDS011;43707;50.184;18.966;2023-07-13T06:10:45;0.10;;;0.10;;
57889;SDS011;43707;50.184;18.966;2023-07-13T06:13:10;0.20;;;0.20;;
57889;SDS011;43707;50.184;18.966;2023-07-13T06:15:36;0.10;;;0.00;;
57889;SDS011;43707;50.184;18.966;2023-07-13T06:18:01;0.10;;;0.10;;
57889;SDS011;43707;50.184;18.966;2023-07-13T06:20:26;0.20;;;0.20;;
57889;SDS011;43707;50.184;18.966;2023-07-13T06:22:54;0.20;;;0.20;;
57889;SDS011;43707;50.184;18.966;2023-07-13T06:25:19;0.10;;;0.10;;
57889;SDS011;43707;50.184;18.966;2023-07-13T06:27:45;0.00;;;0.00;;
57889;SDS011;43707;50.184;18.966;2023-07-13T06:30:10;0.20;;;0.10;;
57889;SDS011;43707;50.184;18.966;2023-07-13T06:32:37;0.10;;;0.10;;
57889;SDS011;43707;50.184;18.966;2023-07-13T06:35:02;0.30;;;0.10;;
57889;SDS011;43707;50.184;18.966;2023-07-13T06:37:28;0.40;;;0.10;;
57889;SDS011;43707;50.184;18.966;2023-07-13T06:39:54;0.10;;;0.10;;
57889;SDS011;43707;50.184;18.966;2023-07-13T06:42:19;0.20;;;0.20;;
57889;SDS011;43707;50.184;18.966;2023-07-13T06:44:44;0.00;;;0.00;;
57889;SDS011;43707;50.184;18.966;2023-07-13T06:47:11;0.10;;;0.10;;
57889;SDS011;43707;50.184;18.966;2023-07-13T06:49:36;0.10;;;0.10;;
57889;SDS011;43707;50.184;18.966;2023-07-13T06:52:02;0.10;;;0.10;;
57889;SDS011;43707;50.184;18.966;2023-07-13T06:54:28;0.10;;;0.10;;
57889;SDS011;43707;50.184;18.966;2023-07-13T06:56:53;0.10;;;0.10;;
57889;SDS011;43707;50.184;18.966;2023-07-13T06:59:19;0.10;;;0.10;;
57889;SDS011;43707;50.184;18.966;2023-07-13T07:01:44;0.10;;;0.10;;
57889;SDS011;43707;50.184;18.966;2023-07-13T07:04:09;0.10;;;0.10;;
57889;SDS011;43707;50.184;18.966;2023-07-13T07:06:35;0.10;;;0.10;;
57889;SDS011;43707;50.184;18.966;2023-07-13T07:09:00;0.10;;;0.10;;
57889;SDS011;43707;50.184;18.966;2023-07-13T07:11:26;0.10;;;0.10;;
57889;SDS011;43707;50.184;18.966;2023-07-13T07:13:51;0.10;;;0.10;;
57889;SDS011;43707;50.184;18.966;2023-07-13T07:16:18;0.10;;;0.10;;
57889;SDS011;43707;50.184;18.966;2023-07-13T07:18:44;0.20;;;0.20;;
57889;SDS011;43707;50.184;18.966;2023-07-13T07:21:10;0.90;;;0.20;;
57889;SDS011;43707;50.184;18.966;2023-07-13T07:23:35;0.10;;;0.10;;
57889;SDS011;43707;50.184;18.966;2023-07-13T07:26:01;0.10;;;0.10;;
57889;SDS011;43707;50.184;18.966;2023-07-13T07:28:27;0.10;;;0.10;;
57889;SDS011;43707;50.184;18.966;2023-07-13T07:30:54;0.20;;;0.20;;
57889;SDS011;43707;50.184;18.966;2023-07-13T07:33:23;0.10;;;0.10;;
57889;SDS011;43707;50.184;18.966;2023-07-13T07:35:49;0.00;;;0.00;;
57889;SDS011;43707;50.184;18.966;2023-07-13T07:38:15;0.10;;;0.10;;
57889;SDS011;43707;50.184;18.966;2023-07-13T07:40:41;0.20;;;0.20;;
57889;SDS011;43707;50.184;18.966;2023-07-13T07:43:07;0.10;;;0.10;;
57889;SDS011;43707;50.184;18.966;2023-07-13T07:45:33;0.10;;;0.10;;
57889;SDS011;43707;50.184;18.966;2023-07-13T07:47:59;0.20;;;0.20;;
57889;SDS011;43707;50.184;18.966;2023-07-13T07:50:25;0.20;;;0.20;;
57889;SDS011;43707;50.184;18.966;2023-07-13T07:52:51;0.10;;;0.10;;
57889;SDS011;43707;50.184;18.966;2023-07-13T07:55:16;0.10;;;0.10;;
57889;SDS011;43707;50.184;18.966;2023-07-13T07:57:42;0.10;;;0.10;;
57889;SDS011;43707;50.184;18.966;2023-07-13T08:00:07;0.20;;;0.20;;
57889;SDS011;43707;50.184;18.966;2023-07-13T08:02:33;0.10;;;0.10;;
57889;SDS011;43707;50.184;18.966;2023-07-13T08:04:58;0.10;;;0.10;;
57889;SDS011;43707;50.184;18.966;2023-07-13T08:07:24;0.20;;;0.20;;
57889;SDS011;43707;50.184;18.966;2023-07-13T08:09:52;0.20;;;0.20;;
57889;SDS011;43707;50.184;18.966;2023-07-13T08:12:18;0.30;;;0.30;;
57889;SDS011;43707;50.184;18.966;2023-07-13T08:14:43;0.10;;;0.10;;
57889;SDS011;43707;50.184;18.966;2023-07-13T08:17:08;0.10;;;0.10;;
57889;SDS011;43707;50.184;18.966;2023-07-13T08:19:34;0.30;;;0.30;;
57889;SDS011;43707;50.184;18.966;2023-07-13T08:21:59;0.10;;;0.10;;
57889;SDS011;43707;50.184;18.966;2023-07-13T08:24:24;0.20;;;0.20;;
57889;SDS011;43707;50.184;18.966;2023-07-13T08:26:50;0.20;;;0.10;;
57889;SDS011;43707;50.184;18.966;2023-07-13T08:29:16;0.20;;;0.20;;
57889;SDS011;43707;50.184;18.966;2023-07-13T08:31:41;0.10;;;0.10;;
57889;SDS011;43707;50.184;18.966;2023-07-13T08:34:07;0.20;;;0.20;;
57889;SDS011;43707;50.184;18.966;2023-07-13T08:36:32;0.10;;;0.10;;
57889;SDS011;43707;50.184;18.966;2023-07-13T08:38:58;0.10;;;0.10;;
57889;SDS011;43707;50.184;18.966;2023-07-13T08:41:23;0.20;;;0.20;;
57889;SDS011;43707;50.184;18.966;2023-07-13T08:43:50;0.20;;;0.20;;
57889;SDS011;43707;50.184;18.966;2023-07-13T08:48:49;0.10;;;0.10;;
57889;SDS011;43707;50.184;18.966;2023-07-13T08:54:01;0.20;;;0.20;;
57889;SDS011;43707;50.184;18.966;2023-07-13T08:56:28;0.30;;;0.20;;
57889;SDS011;43707;50.184;18.966;2023-07-13T08:58:56;0.10;;;0.10;;
57889;SDS011;43707;50.184;18.966;2023-07-13T09:12:27;0.20;;;0.20;;
57889;SDS011;43707;50.184;18.966;2023-07-13T09:15:03;0.10;;;0.10;;
57889;SDS011;43707;50.184;18.966;2023-07-13T09:17:32;0.20;;;0.20;;
57889;SDS011;43707;50.184;18.966;2023-07-13T09:20:03;0.20;;;0.20;;
57889;SDS011;43707;50.184;18.966;2023-07-13T09:22:36;0.30;;;0.20;;
57889;SDS011;43707;50.184;18.966;2023-07-13T09:28:01;0.10;;;0.10;;
57889;SDS011;43707;50.184;18.966;2023-07-13T09:30:38;0.20;;;0.20;;
57889;SDS011;43707;50.184;18.966;2023-07-13T09:33:27;0.10;;;0.10;;
57889;SDS011;43707;50.184;18.966;2023-07-13T09:35:55;0.10;;;0.10;;
57889;SDS011;43707;50.184;18.966;2023-07-13T09:38:24;0.20;;;0.20;;
57889;SDS011;43707;50.184;18.966;2023-07-13T09:41:11;0.50;;;0.20;;
57889;SDS011;43707;50.184;18.966;2023-07-13T09:44:00;0.20;;;0.20;;
57889;SDS011;43707;50.184;18.966;2023-07-13T09:46:34;0.20;;;0.20;;
57889;SDS011;43707;50.184;18.966;2023-07-13T09:49:00;0.80;;;0.20;;
57889;SDS011;43707;50.184;18.966;2023-07-13T09:51:25;0.30;;;0.30;;
57889;SDS011;43707;50.184;18.966;2023-07-13T09:53:50;0.20;;;0.20;;
57889;SDS011;43707;50.184;18.966;2023-07-13T09:56:20;0.70;;;0.20;;
57889;SDS011;43707;50.184;18.966;2023-07-13T09:58:45;0.30;;;0.30;;
57889;SDS011;43707;50.184;18.966;2023-07-13T10:01:11;0.10;;;0.10;;
57889;SDS011;43707;50.184;18.966;2023-07-13T10:03:37;0.20;;;0.20;;
57889;SDS011;43707;50.184;18.966;2023-07-13T10:06:13;0.10;;;0.10;;
57889;SDS011;43707;50.184;18.966;2023-07-13T10:08:45;0.20;;;0.20;;
57889;SDS011;43707;50.184;18.966;2023-07-13T10:11:18;0.20;;;0.20;;
57889;SDS011;43707;50.184;18.966;2023-07-13T10:13:50;0.10;;;0.10;;
57889;SDS011;43707;50.184;18.966;2023-07-13T10:16:19;0.10;;;0.10;;
57889;SDS011;43707;50.184;18.966;2023-07-13T10:18:46;0.00;;;0.00;;
57889;SDS011;43707;50.184;18.966;2023-07-13T10:21:19;0.10;;;0.10;;
57889;SDS011;43707;50.184;18.966;2023-07-13T10:23:47;0.00;;;0.00;;
57889;SDS011;43707;50.184;18.966;2023-07-13T10:26:22;0.10;;;0.10;;
57889;SDS011;43707;50.184;18.966;2023-07-13T10:28:54;0.10;;;0.10;;
57889;SDS011;43707;50.184;18.966;2023-07-13T10:31:22;0.10;;;0.10;;
57889;SDS011;43707;50.184;18.966;2023-07-13T10:33:48;0.10;;;0.10;;
57889;SDS011;43707;50.184;18.966;2023-07-13T10:36:17;0.10;;;0.10;;
57889;SDS011;43707;50.184;18.966;2023-07-13T10:38:57;0.10;;;0.10;;
57889;SDS011;43707;50.184;18.966;2023-07-13T10:41:24;0.10;;;0.10;;
57889;SDS011;43707;50.184;18.966;2023-07-13T10:43:51;0.20;;;0.10;;
57889;SDS011;43707;50.184;18.966;2023-07-13T10:46:19;0.10;;;0.10;;
57889;SDS011;43707;50.184;18.966;2023-07-13T10:48:52;0.00;;;0.00;;
57889;SDS011;43707;50.184;18.966;2023-07-13T10:51:20;0.10;;;0.10;;
57889;SDS011;43707;50.184;18.966;2023-07-13T10:53:46;0.00;;;0.00;;
57889;SDS011;43707;50.184;18.966;2023-07-13T10:56:22;0.00;;;0.00;;
57889;SDS011;43707;50.184;18.966;2023-07-13T10:59:02;0.10;;;0.10;;
57889;SDS011;43707;50.184;18.966;2023-07-13T11:04:24;0.10;;;0.10;;
57889;SDS011;43707;50.184;18.966;2023-07-13T11:06:52;0.00;;;0.00;;
57889;SDS011;43707;50.184;18.966;2023-07-13T11:11:47;0.10;;;0.10;;
57889;SDS011;43707;50.184;18.966;2023-07-13T11:14:27;0.10;;;0.10;;
57889;SDS011;43707;50.184;18.966;2023-07-13T11:17:24;0.10;;;0.10;;
57889;SDS011;43707;50.184;18.966;2023-07-13T11:23:09;0.00;;;0.00;;
57889;SDS011;43707;50.184;18.966;2023-07-13T11:25:38;0.00;;;0.00;;
57889;SDS011;43707;50.184;18.966;2023-07-13T11:30:36;0.00;;;0.00;;
57889;SDS011;43707;50.184;18.966;2023-07-13T11:33:19;0.10;;;0.10;;
57889;SDS011;43707;50.184;18.966;2023-07-13T11:38:38;0.10;;;0.10;;
57889;SDS011;43707;50.184;18.966;2023-07-13T11:41:07;0.00;;;0.00;;
57889;SDS011;43707;50.184;18.966;2023-07-13T11:43:32;0.00;;;0.00;;
57889;SDS011;43707;50.184;18.966;2023-07-13T11:46:11;0.00;;;0.00;;
57889;SDS011;43707;50.184;18.966;2023-07-13T11:48:37;0.10;;;0.10;;
57889;SDS011;43707;50.184;18.966;2023-07-13T11:51:04;0.00;;;0.00;;
57889;SDS011;43707;50.184;18.966;2023-07-13T11:53:36;0.00;;;0.00;;
57889;SDS011;43707;50.184;18.966;2023-07-13T11:56:04;0.10;;;0.10;;
57889;SDS011;43707;50.184;18.966;2023-07-13T11:58:30;0.00;;;0.00;;
57889;SDS011;43707;50.184;18.966;2023-07-13T12:00:57;0.10;;;0.10;;
57889;SDS011;43707;50.184;18.966;2023-07-13T12:03:26;0.00;;;0.00;;
57889;SDS011;43707;50.184;18.966;2023-07-13T12:05:59;0.10;;;0.10;;
57889;SDS011;43707;50.184;18.966;2023-07-13T12:08:37;0.10;;;0.10;;
57889;SDS011;43707;50.184;18.966;2023-07-13T12:11:11;0.10;;;0.10;;
57889;SDS011;43707;50.184;18.966;2023-07-13T12:13:40;0.00;;;0.00;;
57889;SDS011;43707;50.184;18.966;2023-07-13T12:16:17;0.00;;;0.00;;
57889;SDS011;43707;50.184;18.966;2023-07-13T12:18:48;0.00;;;0.00;;
57889;SDS011;43707;50.184;18.966;2023-07-13T12:21:16;0.00;;;0.00;;
57889;SDS011;43707;50.184;18.966;2023-07-13T12:23:43;0.10;;;0.10;;
57889;SDS011;43707;50.184;18.966;2023-07-13T12:26:09;0.00;;;0.00;;
57889;SDS011;43707;50.184;18.966;2023-07-13T12:28:37;0.10;;;0.10;;
57889;SDS011;43707;50.184;18.966;2023-07-13T12:31:06;0.10;;;0.10;;
57889;SDS011;43707;50.184;18.966;2023-07-13T12:33:33;0.10;;;0.10;;
57889;SDS011;43707;50.184;18.966;2023-07-13T12:36:02;0.10;;;0.10;;
57889;SDS011;43707;50.184;18.966;2023-07-13T12:38:30;0.10;;;0.10;;
57889;SDS011;43707;50.184;18.966;2023-07-13T12:40:57;0.00;;;0.00;;
57889;SDS011;43707;50.184;18.966;2023-07-13T12:43:23;0.00;;;0.00;;
57889;SDS011;43707;50.184;18.966;2023-07-13T12:48:25;0.00;;;0.00;;
57889;SDS011;43707;50.184;18.966;2023-07-13T12:50:50;0.00;;;0.00;;
57889;SDS011;43707;50.184;18.966;2023-07-13T12:53:20;0.00;;;0.00;;
57889;SDS011;43707;50.184;18.966;2023-07-13T12:55:54;0.00;;;0.00;;
57889;SDS011;43707;50.184;18.966;2023-07-13T13:00:54;0.10;;;0.10;;
57889;SDS011;43707;50.184;18.966;2023-07-13T13:05:48;0.00;;;0.00;;
57889;SDS011;43707;50.184;18.966;2023-07-13T13:08:14;0.00;;;0.00;;
57889;SDS011;43707;50.184;18.966;2023-07-13T13:10:39;0.10;;;0.10;;
57889;SDS011;43707;50.184;18.966;2023-07-13T13:13:05;0.10;;;0.10;;
57889;SDS011;43707;50.184;18.966;2023-07-13T13:15:30;0.20;;;0.10;;
57889;SDS011;43707;50.184;18.966;2023-07-13T13:17:56;0.00;;;0.00;;
57889;SDS011;43707;50.184;18.966;2023-07-13T13:20:24;0.00;;;0.00;;
57889;SDS011;43707;50.184;18.966;2023-07-13T13:22:51;0.10;;;0.10;;
57889;SDS011;43707;50.184;18.966;2023-07-13T13:25:17;0.00;;;0.00;;
57889;SDS011;43707;50.184;18.966;2023-07-13T13:27:43;0.10;;;0.10;;
57889;SDS011;43707;50.184;18.966;2023-07-13T13:30:13;0.10;;;0.10;;
57889;SDS011;43707;50.184;18.966;2023-07-13T13:32:41;0.00;;;0.00;;
57889;SDS011;43707;50.184;18.966;2023-07-13T13:35:14;0.10;;;0.10;;
57889;SDS011;43707;50.184;18.966;2023-07-13T13:37:40;0.10;;;0.10;;
57889;SDS011;43707;50.184;18.966;2023-07-13T13:40:22;0.10;;;0.10;;
57889;SDS011;43707;50.184;18.966;2023-07-13T13:42:52;0.00;;;0.00;;
57889;SDS011;43707;50.184;18.966;2023-07-13T13:45:19;0.10;;;0.10;;
57889;SDS011;43707;50.184;18.966;2023-07-13T13:47:46;0.10;;;0.10;;
57889;SDS011;43707;50.184;18.966;2023-07-13T13:50:13;0.00;;;0.00;;
57889;SDS011;43707;50.184;18.966;2023-07-13T13:52:41;0.00;;;0.00;;
57889;SDS011;43707;50.184;18.966;2023-07-13T13:55:17;0.10;;;0.10;;
57889;SDS011;43707;50.184;18.966;2023-07-13T13:57:44;0.10;;;0.10;;
57889;SDS011;43707;50.184;18.966;2023-07-13T14:00:10;0.00;;;0.00;;
57889;SDS011;43707;50.184;18.966;2023-07-13T14:02:40;0.10;;;0.10;;
57889;SDS011;43707;50.184;18.966;2023-07-13T14:05:12;0.10;;;0.10;;
57889;SDS011;43707;50.184;18.966;2023-07-13T14:07:38;0.10;;;0.10;;
57889;SDS011;43707;50.184;18.966;2023-07-13T14:10:08;0.00;;;0.00;;
57889;SDS011;43707;50.184;18.966;2023-07-13T14:12:40;0.10;;;0.10;;
57889;SDS011;43707;50.184;18.966;2023-07-13T14:15:13;0.00;;;0.00;;
57889;SDS011;43707;50.184;18.966;2023-07-13T14:17:45;0.10;;;0.10;;
57889;SDS011;43707;50.184;18.966;2023-07-13T14:20:11;0.00;;;0.00;;
57889;SDS011;43707;50.184;18.966;2023-07-13T14:22:37;0.10;;;0.10;;
57889;SDS011;43707;50.184;18.966;2023-07-13T14:25:03;0.00;;;0.00;;
57889;SDS011;43707;50.184;18.966;2023-07-13T14:27:29;0.10;;;0.10;;
57889;SDS011;43707;50.184;18.966;2023-07-13T14:29:54;0.00;;;0.00;;
57889;SDS011;43707;50.184;18.966;2023-07-13T14:32:19;0.00;;;0.00;;
57889;SDS011;43707;50.184;18.966;2023-07-13T14:34:45;0.00;;;0.00;;
57889;SDS011;43707;50.184;18.966;2023-07-13T14:37:14;0.10;;;0.10;;
57889;SDS011;43707;50.184;18.966;2023-07-13T14:39:42;0.10;;;0.10;;
57889;SDS011;43707;50.184;18.966;2023-07-13T14:42:09;0.00;;;0.00;;
57889;SDS011;43707;50.184;18.966;2023-07-13T14:44:35;0.00;;;0.00;;
57889;SDS011;43707;50.184;18.966;2023-07-13T14:47:03;0.00;;;0.00;;
57889;SDS011;43707;50.184;18.966;2023-07-13T14:49:31;0.00;;;0.00;;
57889;SDS011;43707;50.184;18.966;2023-07-13T14:54:43;0.10;;;0.10;;
57889;SDS011;43707;50.184;18.966;2023-07-13T14:57:13;0.10;;;0.10;;
57889;SDS011;43707;50.184;18.966;2023-07-13T14:59:40;0.10;;;0.10;;
57889;SDS011;43707;50.184;18.966;2023-07-13T15:02:27;0.10;;;0.10;;
57889;SDS011;43707;50.184;18.966;2023-07-13T15:04:54;0.00;;;0.00;;
57889;SDS011;43707;50.184;18.966;2023-07-13T15:07:20;0.20;;;0.10;;
57889;SDS011;43707;50.184;18.966;2023-07-13T15:09:46;0.00;;;0.00;;
57889;SDS011;43707;50.184;18.966;2023-07-13T15:12:12;0.00;;;0.00;;
57889;SDS011;43707;50.184;18.966;2023-07-13T15:14:38;0.10;;;0.10;;
57889;SDS011;43707;50.184;18.966;2023-07-13T15:17:04;0.10;;;0.10;;
57889;SDS011;43707;50.184;18.966;2023-07-13T15:19:30;0.10;;;0.10;;
57889;SDS011;43707;50.184;18.966;2023-07-13T15:21:56;0.70;;;0.10;;